Time;durP1;ratioP1;P1;durP2;ratioP2;P2;SDS_P1;SDS_P2;PMS_P1;PMS_P2;Temp;Humidity;BMP_temperature;BMP_pressure;BME280_temperature;BME280_humidity;BME280_pressure;Samples;Min_cycle;Max_cycle;Signal;HPM_P1;HPM_P2
2023/09/02 00:00:45;;;;;;;2.80;0.90;;;15.50;99.90;;;;;;5039631;28;20188;-74
2023/09/02 00:03:10;;;;;;;1.92;1.02;;;15.50;99.90;;;;;;5031537;28;20603;-73
2023/09/02 00:05:36;;;;;;;2.40;1.02;;;15.50;99.90;;;;;;5040500;28;20231;-73
2023/09/02 00:08:01;;;;;;;5.55;1.10;;;15.40;99.90;;;;;;5051300;28;20321;-74
2023/09/02 00:10:27;;;;;;;2.25;1.10;;;15.40;99.90;;;;;;5051249;28;20219;-73
2023/09/02 00:12:53;;;;;;;3.28;1.02;;;15.30;99.90;;;;;;5051175;28;20226;-74
2023/09/02 00:15:18;;;;;;;2.92;1.10;;;15.40;99.90;;;;;;5051191;28;20662;-74
2023/09/02 00:17:44;;;;;;;2.70;1.00;;;15.30;99.90;;;;;;5050758;28;20256;-74
2023/09/02 00:20:10;;;;;;;3.67;1.35;;;15.20;99.90;;;;;;5050939;28;20180;-74
2023/09/02 00:22:36;;;;;;;4.65;1.27;;;15.30;99.90;;;;;;5051077;28;20177;-73
2023/09/02 00:25:02;;;;;;;3.20;0.93;;;15.20;99.90;;;;;;5051434;28;20204;-73
2023/09/02 00:27:28;;;;;;;2.45;1.00;;;15.30;99.90;;;;;;5050905;28;20165;-73
2023/09/02 00:29:53;;;;;;;5.28;1.40;;;15.30;99.90;;;;;;5050878;28;20536;-73
2023/09/02 00:32:19;;;;;;;3.55;1.17;;;15.00;99.90;;;;;;5050962;28;20173;-73
2023/09/02 00:34:47;;;;;;;5.35;1.20;;;15.10;99.90;;;;;;5050919;28;20173;-73
2023/09/02 00:37:13;;;;;;;4.15;1.20;;;15.00;99.90;;;;;;5049553;28;20640;-73
2023/09/02 00:39:39;;;;;;;2.17;1.02;;;15.00;99.90;;;;;;5049676;28;20189;-74
2023/09/02 00:42:06;;;;;;;1.92;1.20;;;14.90;99.90;;;;;;5049531;28;20688;-73
2023/09/02 00:44:37;;;;;;;4.35;1.33;;;15.00;99.90;;;;;;5050940;28;20609;-74
2023/09/02 00:47:03;;;;;;;5.68;1.10;;;14.70;99.90;;;;;;5050547;28;20173;-73
2023/09/02 00:49:30;;;;;;;3.55;1.50;;;15.00;99.90;;;;;;5050773;28;20203;-73
2023/09/02 00:51:56;;;;;;;4.88;1.42;;;15.00;99.90;;;;;;5050691;28;20663;-74
2023/09/02 00:54:22;;;;;;;3.78;1.75;;;14.80;99.90;;;;;;5050846;28;20177;-73
2023/09/02 00:56:48;;;;;;;5.35;1.58;;;15.00;99.90;;;;;;5050737;28;20181;-73
2023/09/02 00:59:14;;;;;;;5.55;1.90;;;14.80;99.90;;;;;;5050875;28;20239;-73
2023/09/02 01:01:42;;;;;;;3.90;1.80;;;14.90;99.90;;;;;;5030019;28;20294;-73
2023/09/02 01:04:07;;;;;;;3.63;1.52;;;14.80;99.90;;;;;;5030684;28;20653;-73
2023/09/02 01:06:34;;;;;;;3.28;1.40;;;14.90;99.90;;;;;;5038515;28;20203;-73
2023/09/02 01:09:00;;;;;;;2.80;1.60;;;15.00;99.90;;;;;;5054222;28;20523;-73
2023/09/02 01:11:26;;;;;;;3.50;1.67;;;14.90;99.90;;;;;;5054596;28;20180;-74
2023/09/02 01:13:52;;;;;;;4.53;1.45;;;14.80;99.90;;;;;;5054609;28;20195;-73
2023/09/02 01:16:18;;;;;;;3.72;1.60;;;14.80;99.90;;;;;;5054357;28;20708;-74
2023/09/02 01:18:44;;;;;;;4.20;1.73;;;14.80;99.90;;;;;;5054556;28;20166;-74
2023/09/02 01:21:16;;;;;;;5.97;1.85;;;14.70;99.90;;;;;;5054211;28;20644;-74
2023/09/02 01:24:19;;;;;;;5.45;1.55;;;15.00;99.90;;;;;;5054373;28;20165;-73
2023/09/02 01:27:14;;;;;;;3.25;1.98;;;14.50;99.90;;;;;;5054264;28;20184;-74
2023/09/02 01:30:10;;;;;;;6.50;1.88;;;14.40;99.90;;;;;;5066399;28;20189;-73
2023/09/02 01:32:40;;;;;;;3.70;1.95;;;14.40;99.90;;;;;;5034257;28;20174;-73
2023/09/02 01:35:07;;;;;;;6.10;1.95;;;14.40;99.90;;;;;;5032941;28;20656;-72
2023/09/02 01:37:43;;;;;;;6.20;2.22;;;14.40;99.90;;;;;;5045714;28;20652;-72
2023/09/02 01:40:14;;;;;;;5.70;2.45;;;14.50;99.90;;;;;;5054161;28;20181;-74
2023/09/02 01:42:42;;;;;;;8.13;2.28;;;14.30;99.90;;;;;;5053994;28;20236;-74
2023/09/02 01:45:10;;;;;;;5.13;2.25;;;14.30;99.90;;;;;;5053982;28;20220;-74
2023/09/02 01:47:37;;;;;;;7.35;1.90;;;14.30;99.90;;;;;;5052431;28;20201;-72
2023/09/02 01:50:06;;;;;;;5.25;2.30;;;14.30;99.90;;;;;;5054002;28;20177;-73
2023/09/02 01:52:32;;;;;;;3.35;1.90;;;14.30;99.90;;;;;;5052456;28;20173;-73
2023/09/02 01:54:58;;;;;;;4.43;2.20;;;14.30;99.90;;;;;;5053936;28;20196;-74
2023/09/02 01:57:24;;;;;;;5.75;1.80;;;14.30;99.90;;;;;;5052404;28;20628;-74
2023/09/02 01:59:50;;;;;;;4.43;2.05;;;14.50;99.90;;;;;;5053525;28;20313;-74
2023/09/02 02:02:16;;;;;;;4.57;2.00;;;14.30;99.90;;;;;;5053770;28;20528;-74
2023/09/02 02:04:49;;;;;;;4.75;2.13;;;14.40;99.90;;;;;;5053542;28;20595;-74
2023/09/02 02:07:18;;;;;;;6.25;1.92;;;14.40;99.90;;;;;;5053377;28;20166;-74
2023/09/02 02:09:48;;;;;;;5.20;2.30;;;15.80;99.90;;;;;;5052158;28;20184;-74
2023/09/02 02:12:14;;;;;;;8.75;2.20;;;14.40;99.90;;;;;;5052275;28;20173;-74
2023/09/02 02:14:40;;;;;;;5.05;2.08;;;14.50;99.90;;;;;;5053542;28;20173;-74
2023/09/02 02:17:06;;;;;;;4.75;2.15;;;14.40;99.90;;;;;;5052167;28;20184;-72
2023/09/02 02:19:33;;;;;;;4.18;1.95;;;14.40;99.90;;;;;;5052963;28;20431;-73
2023/09/02 02:21:59;;;;;;;5.72;2.35;;;14.40;99.90;;;;;;5053119;28;20233;-73
2023/09/02 02:24:25;;;;;;;5.40;2.47;;;14.30;99.90;;;;;;5053235;28;20203;-75
2023/09/02 02:26:52;;;;;;;4.30;2.35;;;14.40;99.90;;;;;;5052651;28;20192;-74
2023/09/02 02:29:17;;;;;;;6.60;2.38;;;14.40;99.90;;;;;;5033228;28;20174;-74
2023/09/02 02:31:43;;;;;;;3.47;2.22;;;14.30;99.90;;;;;;5033305;28;20173;-73
2023/09/02 02:34:09;;;;;;;2.47;1.60;;;14.40;99.90;;;;;;5033190;28;20201;-74
2023/09/02 02:36:34;;;;;;;3.88;1.67;;;14.20;99.90;;;;;;5033237;28;20190;-73
2023/09/02 02:39:00;;;;;;;6.03;1.67;;;14.30;99.90;;;;;;5052855;28;20185;-73
2023/09/02 02:41:25;;;;;;;2.45;1.42;;;14.20;99.90;;;;;;5051394;28;20225;-73
2023/09/02 02:43:51;;;;;;;3.15;1.48;;;14.30;99.90;;;;;;5051727;28;20177;-74
2023/09/02 02:46:17;;;;;;;6.03;1.65;;;14.30;99.90;;;;;;5052785;28;20209;-74
2023/09/02 02:48:42;;;;;;;5.82;1.60;;;14.20;99.90;;;;;;5052985;28;20170;-74
2023/09/02 02:51:09;;;;;;;3.58;1.40;;;13.90;99.90;;;;;;5052755;28;20208;-74
2023/09/02 02:53:34;;;;;;;2.00;1.55;;;14.10;99.90;;;;;;5052548;28;20678;-74
2023/09/02 02:56:02;;;;;;;4.78;1.50;;;14.10;99.90;;;;;;5052621;28;20173;-72
2023/09/02 02:58:28;;;;;;;3.55;1.80;;;14.00;99.90;;;;;;5052589;28;20157;-72
2023/09/02 03:01:09;;;;;;;4.75;1.73;;;14.00;99.90;;;;;;5036492;28;20235;-72
2023/09/02 03:03:35;;;;;;;2.97;1.75;;;14.30;99.90;;;;;;5032741;28;20214;-73
2023/09/02 03:06:03;;;;;;;2.65;1.50;;;13.90;99.90;;;;;;5032548;28;20239;-72
2023/09/02 03:08:29;;;;;;;2.67;1.63;;;13.90;99.90;;;;;;5032651;28;20183;-72
2023/09/02 03:11:07;;;;;;;4.03;1.63;;;13.80;99.90;;;;;;5032512;28;20182;-73
2023/09/02 03:13:36;;;;;;;4.53;1.70;;;13.70;99.90;;;;;;5032300;28;20227;-73
2023/09/02 03:16:02;;;;;;;3.78;1.63;;;13.80;99.90;;;;;;5032243;28;20185;-73
2023/09/02 03:18:28;;;;;;;5.65;1.83;;;13.70;99.90;;;;;;5032404;28;20174;-73
2023/09/02 03:20:55;;;;;;;3.15;1.98;;;13.70;99.90;;;;;;5033380;28;20247;-73
2023/09/02 03:23:23;;;;;;;4.55;1.80;;;13.70;99.90;;;;;;5050150;28;20179;-73
2023/09/02 03:25:49;;;;;;;6.15;2.03;;;13.60;99.90;;;;;;5050749;28;20212;-73
2023/09/02 03:28:14;;;;;;;5.18;2.10;;;13.60;99.90;;;;;;5052166;28;20184;-73
2023/09/02 03:30:40;;;;;;;4.28;2.10;;;13.50;99.90;;;;;;5051094;28;20628;-73
2023/09/02 03:33:07;;;;;;;5.30;2.22;;;13.60;99.90;;;;;;5051719;28;20169;-72
2023/09/02 03:35:38;;;;;;;3.08;2.20;;;13.50;99.90;;;;;;5051669;28;20181;-73
2023/09/02 03:38:04;;;;;;;4.70;2.40;;;13.60;99.90;;;;;;5051855;28;20256;-73
2023/09/02 03:40:30;;;;;;;3.78;1.98;;;13.60;99.90;;;;;;5038964;28;20308;-74
2023/09/02 03:42:55;;;;;;;6.15;2.30;;;13.50;99.90;;;;;;5031645;28;20224;-73
2023/09/02 03:45:21;;;;;;;4.60;1.88;;;13.80;99.90;;;;;;5031660;28;20819;-73
2023/09/02 03:47:47;;;;;;;3.85;2.08;;;13.50;99.90;;;;;;5030629;28;20178;-73
2023/09/02 03:50:12;;;;;;;4.60;2.40;;;13.50;99.90;;;;;;5045560;28;20188;-73
2023/09/02 03:52:38;;;;;;;4.90;2.35;;;13.50;99.90;;;;;;5051599;28;20628;-73
2023/09/02 03:55:04;;;;;;;4.30;2.10;;;13.60;99.90;;;;;;5050021;28;20609;-73
2023/09/02 03:57:31;;;;;;;4.15;2.25;;;13.60;99.90;;;;;;5032798;28;20170;-73
2023/09/02 03:59:56;;;;;;;4.72;2.42;;;13.60;99.90;;;;;;5043560;28;20648;-72
2023/09/02 04:02:22;;;;;;;5.72;2.17;;;13.60;99.90;;;;;;5033346;28;20181;-72
2023/09/02 04:04:48;;;;;;;4.07;2.15;;;13.50;99.90;;;;;;5037858;28;20209;-73
2023/09/02 04:07:14;;;;;;;3.75;2.67;;;13.50;99.90;;;;;;5051306;28;20651;-72
2023/09/02 04:09:39;;;;;;;6.68;3.08;;;13.80;99.90;;;;;;5051225;28;20180;-73
2023/09/02 04:12:05;;;;;;;6.40;3.08;;;13.60;99.90;;;;;;5051322;28;20524;-72
2023/09/02 04:14:31;;;;;;;6.70;3.15;;;13.50;99.90;;;;;;5051205;28;20197;-72
2023/09/02 04:16:59;;;;;;;5.97;3.40;;;13.50;99.90;;;;;;5051094;28;20562;-72
2023/09/02 04:19:25;;;;;;;7.20;3.50;;;;;;;;;;5051078;28;20195;-73
2023/09/02 04:21:52;;;;;;;6.80;2.80;;;13.40;99.90;;;;;;5050938;28;20173;-73
2023/09/02 04:24:17;;;;;;;7.15;2.97;;;13.40;99.90;;;;;;5051053;28;20583;-73
2023/09/02 04:26:43;;;;;;;6.38;3.20;;;13.30;99.90;;;;;;5049753;28;20181;-73
2023/09/02 04:29:08;;;;;;;4.20;2.72;;;13.30;99.90;;;;;;5051117;28;20223;-75
2023/09/02 04:31:34;;;;;;;5.15;3.00;;;13.30;99.90;;;;;;5050972;28;20697;-75
2023/09/02 04:34:00;;;;;;;5.72;3.00;;;13.20;99.90;;;;;;5050861;28;20177;-75
2023/09/02 04:36:25;;;;;;;8.43;2.60;;;14.60;99.90;;;;;;5051073;28;20173;-74
2023/09/02 04:38:51;;;;;;;4.93;2.85;;;13.30;99.90;;;;;;5051142;28;20200;-75
2023/09/02 04:41:17;;;;;;;4.97;2.90;;;13.40;99.90;;;;;;5050677;28;20221;-74
2023/09/02 04:43:43;;;;;;;4.93;3.10;;;;;;;;;;5050642;28;20173;-75
2023/09/02 04:46:09;;;;;;;4.65;3.08;;;13.50;99.90;;;;;;5050500;28;20591;-73
2023/09/02 04:48:35;;;;;;;8.13;4.35;;;13.40;99.90;;;;;;5050733;28;20165;-73
2023/09/02 04:51:03;;;;;;;8.32;5.15;;;13.50;99.90;;;;;;5050793;28;20536;-73
2023/09/02 04:53:29;;;;;;;10.43;6.00;;;14.00;99.90;;;;;;5050814;28;20209;-72
2023/09/02 04:55:54;;;;;;;10.55;5.75;;;13.80;99.90;;;;;;5050560;28;20227;-73
2023/09/02 04:58:21;;;;;;;7.30;4.60;;;14.00;99.90;;;;;;5050588;28;20168;-72
2023/09/02 05:00:47;;;;;;;6.60;3.70;;;14.00;99.90;;;;;;5050842;28;20260;-71
2023/09/02 05:03:13;;;;;;;8.05;3.55;;;;;;;;;;5050689;28;20240;-72
2023/09/02 05:05:39;;;;;;;6.00;3.45;;;14.00;99.90;;;;;;5050452;28;20224;-72
2023/09/02 05:08:05;;;;;;;7.80;4.15;;;14.10;99.90;;;;;;5049297;28;20169;-72
2023/09/02 05:10:31;;;;;;;6.20;3.78;;;14.10;99.90;;;;;;5050665;28;20252;-72
2023/09/02 05:12:56;;;;;;;6.50;3.67;;;14.20;99.90;;;;;;5050635;28;20169;-73
2023/09/02 05:15:22;;;;;;;6.65;3.75;;;14.20;99.90;;;;;;5050194;28;20521;-72
2023/09/02 05:17:50;;;;;;;8.57;3.60;;;14.60;99.90;;;;;;5050202;28;20166;-73
2023/09/02 05:20:15;;;;;;;5.47;3.22;;;14.20;99.90;;;;;;5050467;28;20780;-73
2023/09/02 05:22:41;;;;;;;5.18;3.45;;;14.10;99.90;;;;;;5050512;28;20173;-75
2023/09/02 05:25:07;;;;;;;8.20;3.55;;;14.10;99.90;;;;;;5035275;28;20217;-73
2023/09/02 05:27:33;;;;;;;6.28;3.42;;;14.10;99.90;;;;;;5036439;28;20177;-73
2023/09/02 05:29:59;;;;;;;6.05;3.92;;;14.00;99.90;;;;;;5044013;28;20248;-73
2023/09/02 05:32:25;;;;;;;7.53;4.65;;;14.10;99.90;;;;;;5049080;28;20308;-73
2023/09/02 05:34:50;;;;;;;8.07;4.68;;;14.20;99.90;;;;;;5039926;28;20181;-73
2023/09/02 05:37:16;;;;;;;11.25;4.60;;;14.20;99.90;;;;;;5046326;28;20184;-73
2023/09/02 05:39:42;;;;;;;9.20;5.18;;;14.30;99.90;;;;;;5050258;28;20174;-73
2023/09/02 05:42:08;;;;;;;7.22;4.90;;;14.40;99.90;;;;;;5050212;28;20241;-74
2023/09/02 05:44:37;;;;;;;7.97;4.53;;;14.50;99.90;;;;;;5048988;28;20219;-74
2023/09/02 05:47:02;;;;;;;7.18;4.18;;;14.50;99.90;;;;;;5048814;28;20181;-74
2023/09/02 05:49:28;;;;;;;6.63;4.25;;;14.50;99.90;;;;;;5050184;28;20166;-74
2023/09/02 05:51:54;;;;;;;7.05;4.38;;;14.60;99.90;;;;;;5050235;28;20643;-71
2023/09/02 05:54:19;;;;;;;5.60;4.20;;;14.60;99.90;;;;;;5051005;28;20175;-72
2023/09/02 05:56:48;;;;;;;8.65;4.43;;;14.60;99.90;;;;;;5054117;28;20651;-71
2023/09/02 05:59:13;;;;;;;6.28;3.88;;;14.60;99.90;;;;;;5053806;28;20169;-72
2023/09/02 06:01:39;;;;;;;6.28;3.85;;;14.60;99.90;;;;;;5052472;28;20174;-72
2023/09/02 06:04:05;;;;;;;7.72;4.13;;;14.60;99.90;;;;;;5053775;28;20177;-74
2023/09/02 06:06:31;;;;;;;8.63;4.72;;;14.70;99.90;;;;;;5053627;28;20217;-74
2023/09/02 06:08:56;;;;;;;8.18;4.05;;;14.80;99.90;;;;;;5053704;28;20169;-73
2023/09/02 06:11:22;;;;;;;8.10;5.15;;;14.80;99.90;;;;;;5053589;28;20187;-73
2023/09/02 06:13:48;;;;;;;8.95;5.10;;;14.70;99.90;;;;;;5053721;28;20226;-72
2023/09/02 06:16:13;;;;;;;9.63;5.30;;;14.70;99.90;;;;;;5053285;28;20596;-75
2023/09/02 06:18:39;;;;;;;7.82;5.30;;;14.70;99.90;;;;;;5053574;28;20192;-72
2023/09/02 06:21:12;;;;;;;8.98;5.47;;;14.70;99.90;;;;;;5053356;28;20659;-72
2023/09/02 06:23:42;;;;;;;8.73;4.90;;;14.80;99.90;;;;;;5052037;28;20648;-72
2023/09/02 06:26:08;;;;;;;9.05;5.38;;;17.10;99.90;;;;;;5051906;28;20702;-72
2023/09/02 06:28:34;;;;;;;8.90;5.88;;;14.90;99.90;;;;;;5051821;28;20165;-75
2023/09/02 06:31:05;;;;;;;11.77;6.18;;;14.80;99.90;;;;;;5051869;28;20173;-75
2023/09/02 06:33:31;;;;;;;9.45;5.72;;;14.90;99.90;;;;;;5053462;28;20183;-75
2023/09/02 06:35:57;;;;;;;12.13;6.10;;;14.90;99.90;;;;;;5051167;28;20174;-75
2023/09/02 06:38:22;;;;;;;13.63;6.35;;;15.10;99.90;;;;;;5040668;28;20587;-75
2023/09/02 06:40:48;;;;;;;14.93;6.75;;;14.90;99.90;;;;;;5052861;28;20177;-76
2023/09/02 06:43:14;;;;;;;12.82;7.22;;;15.00;99.90;;;;;;5051467;28;20543;-75
2023/09/02 06:45:40;;;;;;;14.73;7.32;;;15.00;99.90;;;;;;5051406;28;20606;-73
2023/09/02 06:48:06;;;;;;;12.20;7.00;;;15.10;99.90;;;;;;5051507;28;20223;-73
2023/09/02 06:50:32;;;;;;;15.00;7.68;;;;;;;;;;5052953;28;20626;-73
2023/09/02 06:52:57;;;;;;;15.52;7.80;;;15.20;99.90;;;;;;5052935;28;20173;-73
2023/09/02 06:55:23;;;;;;;16.52;7.78;;;15.30;99.90;;;;;;5052457;28;20588;-72
2023/09/02 06:57:49;;;;;;;14.75;7.18;;;15.40;99.90;;;;;;5051503;28;20169;-73
2023/09/02 07:00:15;;;;;;;12.75;7.10;;;15.30;99.90;;;;;;5049482;28;20182;-72
2023/09/02 07:02:42;;;;;;;16.85;7.28;;;15.30;99.90;;;;;;5040205;28;20698;-73
2023/09/02 07:05:08;;;;;;;13.88;7.40;;;15.40;99.90;;;;;;5052313;28;20232;-73
2023/09/02 07:07:36;;;;;;;14.95;7.40;;;15.40;99.90;;;;;;5052492;28;20196;-74
2023/09/02 07:10:02;;;;;;;17.55;7.97;;;15.40;99.90;;;;;;5052489;28;20632;-75
2023/09/02 07:12:27;;;;;;;13.75;7.90;;;15.50;99.90;;;;;;5051814;28;20177;-72
2023/09/02 07:14:53;;;;;;;19.30;9.82;;;15.60;99.90;;;;;;5052321;28;20690;-74
2023/09/02 07:17:19;;;;;;;22.00;10.73;;;15.80;99.90;;;;;;5045727;28;20185;-74
2023/09/02 07:19:44;;;;;;;21.73;11.50;;;15.80;99.90;;;;;;5052201;28;20255;-74
2023/09/02 07:22:10;;;;;;;24.52;11.18;;;15.90;99.90;;;;;;5034269;28;20528;-75
2023/09/02 07:24:35;;;;;;;21.88;11.32;;;16.00;99.90;;;;;;5051867;28;20231;-73
2023/09/02 07:27:01;;;;;;;19.85;11.60;;;16.10;99.90;;;;;;5053044;28;20177;-74
2023/09/02 07:29:28;;;;;;;23.65;12.02;;;;;;;;;;5059557;28;20181;-74
2023/09/02 07:31:55;;;;;;;22.90;12.27;;;16.20;99.90;;;;;;5071987;28;20168;-73
2023/09/02 07:34:20;;;;;;;22.70;11.80;;;16.20;99.90;;;;;;5070629;28;20176;-73
2023/09/02 07:36:46;;;;;;;22.52;11.75;;;16.20;99.90;;;;;;5053524;28;20181;-73
2023/09/02 07:39:12;;;;;;;24.38;12.00;;;16.40;99.90;;;;;;5051764;28;20179;-74
2023/09/02 07:41:38;;;;;;;23.42;11.93;;;16.30;99.90;;;;;;5051590;28;20938;-75
2023/09/02 07:44:04;;;;;;;20.80;11.60;;;16.30;99.90;;;;;;5051520;28;20260;-74
2023/09/02 07:46:29;;;;;;;20.88;11.70;;;16.20;99.90;;;;;;5051203;28;20243;-74
2023/09/02 07:48:55;;;;;;;24.42;12.02;;;16.30;99.90;;;;;;5051394;28;20251;-73
2023/09/02 07:51:21;;;;;;;22.17;12.45;;;16.30;99.90;;;;;;5051311;28;20173;-73
2023/09/02 07:53:46;;;;;;;23.98;12.10;;;16.30;99.90;;;;;;5051648;28;20161;-75
2023/09/02 07:56:12;;;;;;;28.52;13.00;;;16.40;99.90;;;;;;5035081;28;20533;-74
2023/09/02 07:58:38;;;;;;;24.45;12.63;;;16.40;99.90;;;;;;5051257;28;20255;-74
2023/09/02 08:01:03;;;;;;;26.55;12.98;;;16.50;99.90;;;;;;5030650;28;20517;-74
2023/09/02 08:03:29;;;;;;;29.80;13.90;;;16.40;99.90;;;;;;5030276;28;20173;-74
2023/09/02 08:05:55;;;;;;;26.02;13.25;;;16.50;99.90;;;;;;5032955;28;20633;-74
2023/09/02 08:08:21;;;;;;;27.80;13.93;;;16.30;99.90;;;;;;5051210;28;20165;-74
2023/09/02 08:10:46;;;;;;;29.55;14.27;;;16.40;99.90;;;;;;5051157;28;20175;-74
2023/09/02 08:13:12;;;;;;;27.13;14.23;;;16.50;99.90;;;;;;5045763;28;20177;-74
2023/09/02 08:15:38;;;;;;;26.95;14.00;;;16.60;99.90;;;;;;5044457;28;20239;-74
2023/09/02 08:18:05;;;;;;;23.98;13.10;;;16.70;99.90;;;;;;5049045;28;20191;-74
2023/09/02 08:20:30;;;;;;;24.33;13.65;;;16.80;99.90;;;;;;5051101;28;20172;-74
2023/09/02 08:22:56;;;;;;;24.00;13.68;;;16.80;99.90;;;;;;5036071;28;20170;-74
2023/09/02 08:25:22;;;;;;;28.08;14.15;;;16.80;99.90;;;;;;5030946;28;20224;-74
2023/09/02 08:27:48;;;;;;;25.15;12.88;;;16.90;99.90;;;;;;5037906;28;20172;-74
2023/09/02 08:30:15;;;;;;;25.52;13.60;;;16.90;99.90;;;;;;5050901;28;20635;-74
2023/09/02 08:32:41;;;;;;;21.23;12.10;;;17.00;99.90;;;;;;5050773;28;20172;-74
2023/09/02 08:35:08;;;;;;;23.75;13.25;;;16.90;99.90;;;;;;5049663;28;20177;-75
2023/09/02 08:37:34;;;;;;;26.13;12.57;;;17.10;99.90;;;;;;5050889;28;20527;-74
2023/09/02 08:40:00;;;;;;;25.73;12.50;;;17.10;99.90;;;;;;5050740;28;20539;-74
2023/09/02 08:42:27;;;;;;;23.15;12.60;;;17.10;99.90;;;;;;5040911;28;20312;-74
2023/09/02 08:44:55;;;;;;;24.05;12.20;;;17.20;99.90;;;;;;5044722;28;20259;-74
2023/09/02 08:47:21;;;;;;;25.95;12.88;;;17.20;99.90;;;;;;5050409;28;20205;-74
2023/09/02 08:49:49;;;;;;;22.77;11.77;;;17.20;99.90;;;;;;5050711;28;20658;-74
2023/09/02 08:52:15;;;;;;;23.73;13.05;;;17.20;99.90;;;;;;5046069;28;20525;-73
2023/09/02 08:54:43;;;;;;;21.75;12.05;;;17.30;99.90;;;;;;5048867;28;20685;-73
2023/09/02 08:57:11;;;;;;;21.48;11.50;;;17.40;99.90;;;;;;5050289;28;20179;-74
2023/09/02 08:59:36;;;;;;;21.80;11.27;;;17.40;99.90;;;;;;5048986;28;20257;-75
2023/09/02 09:02:04;;;;;;;19.80;11.40;;;17.50;99.90;;;;;;5050859;28;20205;-73
2023/09/02 09:04:33;;;;;;;21.23;10.35;;;17.50;99.90;;;;;;5050846;28;20165;-73
2023/09/02 09:07:03;;;;;;;22.48;10.52;;;17.60;99.90;;;;;;5050629;28;20169;-74
2023/09/02 09:09:30;;;;;;;23.42;10.32;;;17.70;99.90;;;;;;5035732;28;20209;-74
2023/09/02 09:11:58;;;;;;;17.30;9.50;;;17.80;99.90;;;;;;5030639;28;20189;-73
2023/09/02 09:14:26;;;;;;;19.85;10.43;;;17.90;99.90;;;;;;5035569;28;20178;-76
2023/09/02 09:16:55;;;;;;;19.02;10.27;;;18.00;99.90;;;;;;5050301;28;20273;-75
2023/09/02 09:19:26;;;;;;;19.05;10.38;;;18.10;99.90;;;;;;5042786;28;20174;-76
2023/09/02 09:21:52;;;;;;;22.65;10.65;;;18.40;99.90;;;;;;5031766;28;20173;-74
2023/09/02 09:24:17;;;;;;;18.58;10.00;;;18.50;99.90;;;;;;5040351;28;20184;-75
2023/09/02 09:26:45;;;;;;;20.92;9.57;;;18.80;99.90;;;;;;5031102;28;20684;-77
2023/09/02 09:29:12;;;;;;;16.67;9.27;;;18.90;99.90;;;;;;5031940;28;20182;-75
2023/09/02 09:31:38;;;;;;;16.63;8.85;;;19.10;99.90;;;;;;5047726;28;20239;-75
2023/09/02 09:34:05;;;;;;;16.70;9.50;;;19.40;99.90;;;;;;5054231;28;20197;-76
2023/09/02 09:36:31;;;;;;;14.40;8.48;;;20.10;99.90;;;;;;5054379;28;20203;-76
2023/09/02 09:38:58;;;;;;;14.10;8.45;;;20.00;99.90;;;;;;5054201;28;20726;-75
2023/09/02 09:41:25;;;;;;;13.27;8.45;;;20.40;99.90;;;;;;5052333;28;20250;-75
2023/09/02 09:44:11;;;;;;;13.98;7.93;;;20.40;99.90;;;;;;5053860;28;20177;-76
2023/09/02 09:46:42;;;;;;;15.55;8.40;;;20.60;99.90;;;;;;5053931;28;20354;-75
2023/09/02 09:49:27;;;;;;;15.57;8.35;;;20.80;99.90;;;;;;5047729;28;20181;-75
2023/09/02 09:52:01;;;;;;;14.95;8.13;;;21.00;99.90;;;;;;5034357;28;20189;-74
2023/09/02 09:54:39;;;;;;;15.07;7.78;;;21.10;99.90;;;;;;5042887;28;20179;-76
2023/09/02 09:57:08;;;;;;;12.82;7.32;;;22.80;99.90;;;;;;5052769;28;20204;-75
2023/09/02 09:59:34;;;;;;;12.52;6.65;;;21.60;99.90;;;;;;5054005;28;20170;-76
2023/09/02 10:02:06;;;;;;;14.43;6.25;;;22.00;99.90;;;;;;5054147;28;20169;-77
2023/09/02 10:04:33;;;;;;;9.55;5.53;;;22.60;99.90;;;;;;5053693;28;20169;-77
2023/09/02 10:07:02;;;;;;;11.38;5.88;;;22.70;99.90;;;;;;5053323;28;20173;-75
2023/09/02 10:09:45;;;;;;;12.60;6.05;;;22.60;99.90;;;;;;5053189;28;20169;-76
2023/09/02 10:12:15;;;;;;;11.40;6.22;;;22.40;99.90;;;;;;5046524;28;20520;-75
2023/09/02 10:14:46;;;;;;;8.52;5.43;;;22.20;99.90;;;;;;5033729;28;20180;-76
2023/09/02 10:17:12;;;;;;;9.63;5.60;;;22.30;99.90;;;;;;5033277;28;20176;-76
2023/09/02 10:19:39;;;;;;;8.25;5.15;;;22.10;99.90;;;;;;5033824;28;20174;-74
2023/09/02 10:22:05;;;;;;;7.68;5.00;;;22.00;99.90;;;;;;5046381;28;20208;-73
2023/09/02 10:24:34;;;;;;;9.13;5.20;;;22.00;99.90;;;;;;5037064;28;20181;-73
2023/09/02 10:27:03;;;;;;;8.20;4.90;;;21.90;99.90;;;;;;5033285;28;20182;-72
2023/09/02 10:29:34;;;;;;;10.88;5.43;;;21.70;99.90;;;;;;5031775;28;20182;-75
2023/09/02 10:32:09;;;;;;;10.50;5.47;;;21.50;99.90;;;;;;5033253;28;20185;-73
2023/09/02 10:34:58;;;;;;;10.23;5.05;;;21.20;99.90;;;;;;5065219;28;20196;-73
2023/09/02 10:37:27;;;;;;;8.45;4.85;;;21.10;99.90;;;;;;5042443;28;20173;-73
2023/09/02 10:40:05;;;;;;;8.20;5.00;;;20.80;99.90;;;;;;5038946;28;20749;-73
2023/09/02 10:42:31;;;;;;;7.90;4.95;;;21.20;99.90;;;;;;5032499;28;20319;-73
2023/09/02 10:44:57;;;;;;;11.68;6.18;;;21.60;99.90;;;;;;5032765;28;20252;-74
2023/09/02 10:47:22;;;;;;;10.10;5.88;;;21.70;99.90;;;;;;5032692;28;20303;-74
2023/09/02 10:49:49;;;;;;;15.02;6.15;;;22.00;99.90;;;;;;5032958;28;20174;-73
2023/09/02 10:52:15;;;;;;;7.25;4.38;;;22.30;99.90;;;;;;5032717;28;20166;-73
2023/09/02 10:55:03;;;;;;;11.07;5.82;;;23.40;99.90;;;;;;5032596;28;20177;-74
2023/09/02 10:57:43;;;;;;;8.15;4.97;;;23.50;99.90;;;;;;5032550;28;20526;-74
2023/09/02 11:00:17;;;;;;;5.93;3.78;;;23.50;99.90;;;;;;5032826;28;20197;-74
2023/09/02 11:02:44;;;;;;;5.85;4.25;;;23.40;99.90;;;;;;5032647;28;20173;-75
2023/09/02 11:05:11;;;;;;;6.38;4.28;;;25.10;99.90;;;;;;5032369;28;20657;-74
2023/09/02 11:07:39;;;;;;;6.45;3.75;;;26.00;99.90;;;;;;5032394;28;20174;-76
2023/09/02 11:10:06;;;;;;;4.93;2.95;;;26.90;99.90;;;;;;5032355;28;20308;-74
2023/09/02 11:12:33;;;;;;;6.88;3.05;;;26.70;1.00;;;;;;5031148;28;20178;-74
2023/09/02 11:15:08;;;;;;;3.00;2.50;;;27.00;79.80;;;;;;5032719;28;20189;-74
2023/09/02 11:17:34;;;;;;;3.42;2.40;;;27.80;1.00;;;;;;5032080;28;20177;-75
2023/09/02 11:20:05;;;;;;;9.05;2.42;;;28.50;99.90;;;;;;5032422;28;20178;-76
2023/09/02 11:23:20;;;;;;;3.20;1.95;;;29.30;1.00;;;;;;5032224;28;20174;-74
2023/09/02 11:25:45;;;;;;;2.92;1.92;;;29.40;99.90;;;;;;5013070;28;20224;-75
2023/09/02 11:28:17;;;;;;;4.40;1.88;;;29.60;1.00;;;;;;5024350;28;20172;-75
2023/09/02 11:31:01;;;;;;;2.15;1.90;;;29.80;1.00;;;;;;5051162;28;20197;-74
2023/09/02 11:33:26;;;;;;;1.85;1.65;;;30.40;99.90;;;;;;5052058;28;20169;-74
2023/09/02 11:35:53;;;;;;;1.73;1.50;;;30.00;1.00;;;;;;5050640;28;20214;-74
2023/09/02 11:38:19;;;;;;;1.83;1.50;;;29.80;1.00;;;;;;5052129;28;20208;-74
2023/09/02 11:40:46;;;;;;;1.33;1.23;;;29.50;1.00;;;;;;5051959;28;20187;-74
2023/09/02 11:43:18;;;;;;;1.92;1.20;;;29.60;99.90;;;;;;5051583;28;20216;-74
2023/09/02 11:45:45;;;;;;;1.90;1.48;;;29.80;99.90;;;;;;5051336;28;20687;-74
2023/09/02 11:48:10;;;;;;;2.20;1.52;;;30.50;99.90;;;;;;5051610;28;20172;-73
2023/09/02 11:50:38;;;;;;;2.28;1.50;;;30.30;99.90;;;;;;5051663;28;20666;-74
2023/09/02 11:53:06;;;;;;;1.73;1.50;;;30.10;99.90;;;;;;5049809;28;20224;-73
2023/09/02 11:55:31;;;;;;;1.30;1.20;;;30.50;99.90;;;;;;5048952;28;20651;-73
2023/09/02 11:58:05;;;;;;;2.50;1.65;;;30.80;99.90;;;;;;5048884;28;20252;-73
2023/09/02 12:00:30;;;;;;;2.50;2.00;;;29.90;1.40;;;;;;5051813;28;20176;-74
2023/09/02 12:02:58;;;;;;;2.97;2.15;;;30.10;1.00;;;;;;5047976;28;20717;-74
2023/09/02 12:05:24;;;;;;;2.78;1.88;;;31.00;1.00;;;;;;5051172;28;20223;-73
2023/09/02 12:07:51;;;;;;;1.92;1.65;;;31.80;1.00;;;;;;5038247;28;20252;-74
2023/09/02 12:10:17;;;;;;;1.77;1.58;;;30.70;1.00;;;;;;5047946;28;20211;-74
2023/09/02 12:12:49;;;;;;;2.63;1.73;;;29.90;1.00;;;;;;5049523;28;20659;-75
2023/09/02 12:15:19;;;;;;;2.20;1.77;;;28.60;1.00;;;;;;5047697;28;21871;-74
2023/09/02 12:17:46;;;;;;;2.30;1.67;;;26.60;1.00;;;;;;5040746;28;20705;-74
2023/09/02 12:20:16;;;;;;;3.03;2.15;;;26.80;99.90;;;;;;5031523;28;20193;-74
2023/09/02 12:22:44;;;;;;;3.50;2.30;;;25.80;99.90;;;;;;5031274;28;20201;-74
2023/09/02 12:25:23;;;;;;;2.65;2.22;;;26.50;1.00;;;;;;5031007;28;20218;-75
2023/09/02 12:27:50;;;;;;;2.60;1.92;;;26.00;1.00;;;;;;5040131;28;20177;-75
2023/09/02 12:30:26;;;;;;;2.17;1.65;;;25.90;99.90;;;;;;5030976;28;20196;-74
2023/09/02 12:32:52;;;;;;;3.28;1.90;;;27.50;99.90;;;;;;5031514;28;20178;-74
2023/09/02 12:35:18;;;;;;;2.92;1.90;;;;;;;;;;5031628;28;20176;-75
2023/09/02 12:37:43;;;;;;;2.42;1.75;;;27.80;1.00;;;;;;5046333;28;20192;-74
2023/09/02 12:40:14;;;;;;;3.58;2.10;;;28.50;1.00;;;;;;5050534;28;20169;-74
2023/09/02 12:42:40;;;;;;;2.13;1.77;;;28.50;99.90;;;;;;5050415;28;20244;-75
2023/09/02 12:45:08;;;;;;;2.25;2.00;;;27.30;1.00;;;;;;5050540;28;20266;-74
2023/09/02 12:47:35;;;;;;;3.88;2.38;;;27.40;99.90;;;;;;5049385;28;20177;-75